METAR - Iceland

Last updated 29.04.2017 - at. 01:54

SIGMET for the last six hours

BIRD SIGMET A05 VALID 282100/290100 BIRK- BIRD REYKJAVIK CTA SEV MTW FCST WI N6600 W02400 - N6740 W02410 - N6730 W01220 - N6410 W01500 - N6410 W02030 - N6600 W02400 FL300/430 STNR NC

METAR from the last three hours

AerodromeTimeMessage
BIAR2017-04-29 01.00METAR BIAR 290100Z 19014KT CAVOK 04/M03 Q0996
BIAR2017-04-29 00.00METAR BIAR 290000Z 19016KT CAVOK 06/M01 Q0995
BIAR2017-04-28 23.00METAR BIAR 282300Z 18017KT 9999 OVC067 06/M01 Q0993
BIEG2017-04-29 02.00METAR BIEG 290200Z 15015KT 9999 -RA SCT029 BKN051 OVC070 05/02 Q1000 R04/290195
BIEG2017-04-29 01.00METAR BIEG 290100Z 17012KT 9999 -RA SCT029 BKN046 OVC063 05/02 Q0999 R04/290195
BIEG2017-04-29 00.00METAR BIEG 290000Z 19016G26KT 9999 -RA SCT030 BKN040 OVC047 07/03 Q0998 R04/290195
BIEG2017-04-28 23.00METAR BIEG 282300Z 14015G35KT 9999 -RA SCT034 BKN039 OVC047 08/04 Q0997 R04/290195
BIKF2017-04-29 01.30METAR BIKF 290130Z 14019KT 9999 FEW027CB SCT048 BKN120 03/M02 Q0989
BIKF2017-04-29 01.00METAR BIKF 290100Z 14014KT 9999 FEW019CB SCT031 BKN120 03/M01 Q0989
BIKF2017-04-29 00.30METAR BIKF 290030Z 13018KT 9999 -SHRA FEW019CB SCT042 BKN055 02/M01 Q0989
BIKF2017-04-29 00.00METAR BIKF 290000Z 14016KT 9999 FEW026CB SCT036 02/M03 Q0988
BIKF2017-04-28 23.30METAR BIKF 282330Z 14017KT 9999 FEW015CB SCT033 03/M02 Q0988
BIKF2017-04-28 23.00METAR BIKF 282300Z 15016KT 9999 VCSH FEW008 SCT015CB SCT027 02/M02 Q0988
BIRK2017-04-29 01.30SPECI BIRK 290130Z 13017G27KT 5000 -SHGS FEW012CB OVC023 01/M01 Q0991
BIRK2017-04-29 01.00METAR BIRK 290100Z 14015G29KT 9999 FEW015CB BKN035 02/M01 Q0990 RESHGS
BIRK2017-04-29 00.00METAR BIRK 290000Z 11008KT 090V150 9999 VCSH FEW020CB SCT035 BKN045 02/M02 Q0990
BIRK2017-04-28 23.00METAR BIRK 282300Z 11007KT 070V150 9999 VCSH FEW020CB SCT032 BKN052 01/M02 Q0989


Other related web sites


This website is built with Eplica CMS